Time;durP1;ratioP1;P1;durP2;ratioP2;P2;SDS_P1;SDS_P2;PMS_P1;PMS_P2;Temp;Humidity;BMP_temperature;BMP_pressure;BME280_temperature;BME280_humidity;BME280_pressure;Samples;Min_cycle;Max_cycle;Signal;HPM_P1;HPM_P2
2022/06/11 00:01:03;;;;;;;7.67;2.43;;;;;;;19.56;60.75;101176.53;5084807;28;20236;-72
2022/06/11 00:03:33;;;;;;;8.53;2.20;;;;;;;19.53;60.63;101176.91;5087047;28;20206;-71
2022/06/11 00:06:04;;;;;;;5.87;1.97;;;;;;;19.50;61.01;101185.38;5084109;28;20202;-71
2022/06/11 00:08:32;;;;;;;6.67;2.10;;;;;;;19.48;60.72;101182.88;5081875;28;20215;-71
2022/06/11 00:11:00;;;;;;;5.97;2.40;;;;;;;19.43;60.21;101184.44;5089739;28;20202;-71
2022/06/11 00:13:28;;;;;;;4.27;1.77;;;;;;;19.36;61.10;101178.13;5084867;28;20221;-71
2022/06/11 00:15:56;;;;;;;7.47;2.00;;;;;;;19.27;61.06;101179.25;5084634;28;20216;-72
2022/06/11 00:18:25;;;;;;;6.67;2.50;;;;;;;19.19;61.27;101185.56;5083320;28;20269;-72
2022/06/11 00:20:53;;;;;;;6.00;2.53;;;;;;;19.10;61.53;101184.00;5087084;28;20234;-72
2022/06/11 00:23:23;;;;;;;5.87;2.40;;;;;;;19.08;61.64;101173.44;5082040;28;20202;-72
2022/06/11 00:25:50;;;;;;;6.63;2.40;;;;;;;19.09;61.78;101176.94;5085379;28;20695;-71
2022/06/11 00:28:18;;;;;;;6.67;2.00;;;;;;;19.10;61.64;101189.38;5084327;28;20205;-72
2022/06/11 00:30:47;;;;;;;5.53;2.50;;;;;;;19.13;62.08;101183.63;5086191;28;20226;-71
2022/06/11 00:33:16;;;;;;;7.10;2.40;;;;;;;19.15;61.42;101179.75;5086243;28;20211;-72
2022/06/11 00:35:45;;;;;;;7.43;2.40;;;;;;;19.18;61.35;101179.34;5085175;28;20215;-72
2022/06/11 00:38:13;;;;;;;5.83;1.70;;;;;;;19.18;60.98;101175.81;5085818;28;20291;-72
2022/06/11 00:40:45;;;;;;;4.90;2.17;;;;;;;19.18;61.08;101179.34;5084324;28;20246;-71
2022/06/11 00:43:15;;;;;;;8.10;2.00;;;;;;;19.18;61.02;101171.28;5082809;28;20206;-73
2022/06/11 00:45:52;;;;;;;6.83;2.30;;;;;;;19.17;61.36;101175.00;5085225;28;20622;-72
2022/06/11 00:48:33;;;;;;;13.40;2.57;;;;;;;19.22;60.99;101173.63;5083490;28;20216;-70
2022/06/11 00:51:06;;;;;;;10.37;3.10;;;;;;;19.18;60.94;101170.44;5091356;28;22245;-71
2022/06/11 00:53:38;;;;;;;6.33;2.30;;;;;;;19.11;61.57;101174.91;5088841;28;20292;-71
2022/06/11 00:56:25;;;;;;;8.67;2.23;;;;;;;19.13;61.52;101170.19;5085612;28;20211;-71
2022/06/11 00:58:58;;;;;;;6.27;2.00;;;;;;;19.10;61.40;101168.69;5092646;28;20325;-72
2022/06/11 01:01:31;;;;;;;7.60;2.77;;;;;;;19.09;62.08;101164.34;5087051;28;20211;-72
2022/06/11 01:04:02;;;;;;;8.30;3.10;;;;;;;19.09;61.76;101164.34;5090792;28;21099;-72
2022/06/11 01:06:51;;;;;;;5.23;2.10;;;;;;;19.07;61.78;101168.25;5084988;28;20221;-72
2022/06/11 01:09:30;;;;;;;8.20;2.73;;;;;;;19.04;62.07;101165.94;5088728;28;20213;-71
2022/06/11 01:12:13;;;;;;;7.67;2.70;;;;;;;19.03;62.09;101166.94;5090879;28;20304;-72
2022/06/11 01:14:49;;;;;;;5.73;2.00;;;;;;;19.01;62.02;101159.06;5091743;28;20293;-71
2022/06/11 01:17:30;;;;;;;5.70;2.40;;;;;;;19.00;61.85;101173.53;5090834;28;20569;-72
2022/06/11 01:20:29;;;;;;;7.20;2.50;;;;;;;18.96;62.12;101169.56;5093827;28;20310;-72
2022/06/11 01:23:35;;;;;;;10.33;2.63;;;;;;;18.92;61.94;101162.88;5085726;28;20207;-71
2022/06/11 01:26:24;;;;;;;9.10;2.67;;;;;;;18.88;62.39;101169.66;5088619;28;20220;-71
2022/06/11 01:29:09;;;;;;;7.00;2.40;;;;;;;18.83;62.43;101161.28;5091542;28;20313;-71
2022/06/11 01:31:42;;;;;;;6.97;2.07;;;;;;;18.83;62.23;101161.28;5087131;28;20211;-72
2022/06/11 01:34:22;;;;;;;5.57;2.10;;;;;;;18.82;62.39;101161.50;5094270;28;20941;-71
2022/06/11 01:36:56;;;;;;;9.63;2.50;;;;;;;18.80;62.53;101156.31;5088949;28;20202;-72
2022/06/11 01:39:29;;;;;;;4.40;2.00;;;;;;;18.78;62.24;101163.72;5091331;28;20222;-71
2022/06/11 01:42:02;;;;;;;5.50;2.27;;;;;;;18.78;62.43;101158.34;5092952;28;20210;-72
2022/06/11 01:44:33;;;;;;;4.00;2.20;;;;;;;18.78;62.09;101158.34;5088575;28;20661;-72
2022/06/11 01:47:03;;;;;;;7.37;2.20;;;;;;;18.76;62.51;101166.59;5092158;28;20238;-70
2022/06/11 01:49:42;;;;;;;6.43;2.60;;;;;;;18.76;62.59;101168.44;5088547;28;20790;-71
2022/06/11 01:52:29;;;;;;;6.07;2.17;;;;;;;18.74;62.42;101163.22;5076747;28;20211;-71
2022/06/11 01:55:09;;;;;;;7.67;2.57;;;;;;;18.73;62.59;101172.31;5084772;28;20202;-71
2022/06/11 01:57:48;;;;;;;7.67;1.97;;;;;;;18.71;62.93;101168.16;5084449;28;20214;-72
2022/06/11 02:00:19;;;;;;;7.70;2.40;;;;;;;18.70;62.62;101167.31;5084353;28;20301;-70
2022/06/11 02:03:11;;;;;;;6.47;2.10;;;;;;;18.70;62.83;101172.69;5084638;28;20267;-71
2022/06/11 02:05:58;;;;;;;5.80;2.10;;;;;;;18.58;63.05;101162.56;5083996;28;20217;-71
2022/06/11 02:08:33;;;;;;;7.07;2.53;;;;;;;18.37;64.15;101163.28;5078479;28;20302;-70
2022/06/11 02:11:07;;;;;;;9.47;2.57;;;;;;;18.21;65.06;101166.06;5083944;28;20213;-70
2022/06/11 02:13:40;;;;;;;6.97;2.27;;;;;;;18.08;65.23;101166.69;5083444;28;20604;-71
2022/06/11 02:16:13;;;;;;;8.00;2.80;;;;;;;17.91;65.70;101175.88;5083826;28;20236;-71
2022/06/11 02:18:45;;;;;;;6.97;2.67;;;;;;;17.99;65.32;101175.81;5079898;28;20239;-70
2022/06/11 02:21:17;;;;;;;7.70;2.30;;;;;;;18.04;65.57;101171.56;5084612;28;20323;-70
2022/06/11 02:23:50;;;;;;;7.00;2.30;;;;;;;18.17;65.38;101179.03;5085879;28;20207;-71
2022/06/11 02:26:23;;;;;;;9.33;2.30;;;;;;;18.28;65.05;101170.56;5085008;28;20666;-71
2022/06/11 02:28:52;;;;;;;8.63;2.87;;;;;;;18.33;64.69;101172.69;5084471;28;20194;-70
2022/06/11 02:31:25;;;;;;;10.13;2.90;;;;;;;18.31;64.58;101170.19;5096145;28;20631;-73
2022/06/11 02:33:55;;;;;;;6.33;2.30;;;;;;;18.28;64.81;101175.09;5084533;28;20272;-70
2022/06/11 02:36:27;;;;;;;6.50;2.53;;;;;;;18.31;65.21;101177.41;5084001;28;20207;-70
2022/06/11 02:38:55;;;;;;;6.40;2.30;;;;;;;18.37;64.58;101174.84;5083517;28;20238;-71
2022/06/11 02:41:29;;;;;;;7.00;2.77;;;;;;;18.36;64.40;101170.50;5079951;28;20206;-70
2022/06/11 02:43:58;;;;;;;6.10;2.50;;;;;;;18.18;65.49;101169.13;5082580;28;20838;-70
2022/06/11 02:46:44;;;;;;;6.93;2.73;;;;;;;18.05;66.47;101167.03;5079997;28;20211;-71
2022/06/11 02:49:18;;;;;;;6.80;2.40;;;;;;;18.14;65.90;101175.88;5079211;28;20618;-71
2022/06/11 02:51:48;;;;;;;7.13;2.57;;;;;;;18.19;66.10;101174.34;5080194;28;20903;-71
2022/06/11 02:54:16;;;;;;;4.93;2.60;;;;;;;18.24;66.16;101179.97;5080554;28;20638;-71
2022/06/11 02:56:45;;;;;;;8.40;2.60;;;;;;;18.29;65.96;101179.47;5084419;28;20325;-71
2022/06/11 02:59:13;;;;;;;6.93;3.03;;;;;;;18.30;65.72;101176.56;5087649;28;20248;-72
2022/06/11 03:01:42;;;;;;;10.13;3.50;;;;;;;18.35;65.64;101179.56;5084019;28;20211;-71
2022/06/11 03:04:10;;;;;;;6.77;3.20;;;;;;;18.34;65.26;101180.56;5087738;28;20207;-72
2022/06/11 03:06:41;;;;;;;7.23;2.73;;;;;;;18.32;65.49;101182.59;5086447;28;20253;-72
2022/06/11 03:09:10;;;;;;;10.53;2.90;;;;;;;18.29;65.64;101180.28;5087958;28;20309;-71
2022/06/11 03:11:38;;;;;;;7.73;2.90;;;;;;;18.23;65.97;101178.31;5086298;28;20959;-71
2022/06/11 03:14:09;;;;;;;7.57;2.93;;;;;;;18.16;65.95;101180.06;5088443;28;20233;-71
2022/06/11 03:16:38;;;;;;;10.90;3.00;;;;;;;18.19;65.88;101190.44;5086334;28;20289;-71
2022/06/11 03:19:06;;;;;;;6.87;2.37;;;;;;;18.18;65.85;101187.94;5083573;28;20204;-72
2022/06/11 03:21:34;;;;;;;8.33;3.10;;;;;;;18.20;65.88;101191.28;5088249;28;20225;-71
2022/06/11 03:24:04;;;;;;;9.40;2.80;;;;;;;18.23;65.55;101181.00;5086889;28;20307;-71
2022/06/11 03:26:33;;;;;;;8.90;3.20;;;;;;;18.26;65.00;101186.00;5085543;28;20230;-72
2022/06/11 03:29:01;;;;;;;6.90;2.57;;;;;;;18.27;64.79;101187.69;5092325;28;20216;-71
2022/06/11 03:31:29;;;;;;;13.23;3.03;;;;;;;18.25;65.08;101188.88;5089706;28;20723;-70
2022/06/11 03:33:57;;;;;;;5.63;2.20;;;;;;;18.25;65.25;101204.97;5096766;28;20213;-70
2022/06/11 03:36:32;;;;;;;5.90;2.40;;;;;;;18.26;65.08;101196.75;5095527;28;20297;-70
2022/06/11 03:39:00;;;;;;;10.07;2.50;;;;;;;18.26;65.08;101199.44;5092670;28;20222;-70
2022/06/11 03:41:29;;;;;;;7.60;2.30;;;;;;;18.29;64.53;101207.13;5094739;28;20325;-71
2022/06/11 03:43:57;;;;;;;8.90;2.63;;;;;;;18.30;64.07;101208.78;5084865;28;20213;-70
2022/06/11 03:46:37;;;;;;;4.93;2.57;;;;;;;18.32;63.85;101203.22;5082408;28;21598;-71
2022/06/11 03:49:06;;;;;;;9.30;2.60;;;;;;;18.32;63.73;101209.44;5084904;28;20586;-71
2022/06/11 03:51:34;;;;;;;9.30;2.87;;;;;;;18.31;63.92;101213.13;5083333;28;20203;-71
2022/06/11 03:54:02;;;;;;;7.80;2.63;;;;;;;18.31;64.03;101217.66;5079814;28;20290;-70
2022/06/11 03:56:40;;;;;;;7.50;2.87;;;;;;;18.28;64.14;101212.69;5085540;28;20209;-72
2022/06/11 03:59:09;;;;;;;4.97;2.43;;;;;;;18.26;64.31;101201.28;5081751;28;20298;-71
2022/06/11 04:01:38;;;;;;;7.87;2.53;;;;;;;18.26;64.88;101210.16;5084241;28;20567;-71
2022/06/11 04:04:09;;;;;;;5.27;2.50;;;;;;;18.27;65.03;101211.00;5082385;28;20198;-71
2022/06/11 04:06:40;;;;;;;6.30;2.67;;;;;;;18.25;65.51;101216.56;5083085;28;20234;-72
2022/06/11 04:09:14;;;;;;;5.47;2.33;;;;;;;18.16;65.92;101214.09;5086139;28;20203;-71
2022/06/11 04:11:44;;;;;;;7.73;2.70;;;;;;;17.99;66.57;101199.97;5083874;28;20210;-71
2022/06/11 04:14:12;;;;;;;8.53;2.50;;;;;;;18.09;66.59;101207.78;5081735;28;20215;-71
2022/06/11 04:16:44;;;;;;;9.30;3.13;;;;;;;18.07;66.23;101202.59;5081890;28;20579;-71
2022/06/11 04:19:16;;;;;;;4.90;2.60;;;;;;;18.01;67.21;101214.91;5085808;28;20210;-71
2022/06/11 04:21:45;;;;;;;8.03;2.67;;;;;;;18.12;66.79;101215.50;5085074;28;20321;-71
2022/06/11 04:24:18;;;;;;;11.03;2.70;;;;;;;18.23;66.53;101215.06;5085998;28;20234;-71
2022/06/11 04:26:51;;;;;;;8.80;2.63;;;;;;;18.21;67.04;101215.22;5087043;28;20289;-71
2022/06/11 04:29:21;;;;;;;7.33;2.80;;;;;;;18.26;66.48;101220.91;5082551;28;20257;-71
2022/06/11 04:31:52;;;;;;;6.40;2.97;;;;;;;18.37;66.31;101225.03;5082027;28;20404;-71
2022/06/11 04:34:21;;;;;;;5.17;2.47;;;;;;;18.48;66.44;101218.38;5082208;28;20203;-71
2022/06/11 04:36:50;;;;;;;8.10;2.83;;;;;;;18.56;65.91;101218.31;5083748;28;20764;-71
2022/06/11 04:39:21;;;;;;;10.97;3.20;;;;;;;18.58;66.16;101217.13;5087402;28;20297;-71
2022/06/11 04:41:51;;;;;;;6.73;2.63;;;;;;;18.59;65.58;101217.97;5083043;28;20223;-71
2022/06/11 04:44:21;;;;;;;7.47;2.83;;;;;;;18.64;65.58;101220.97;5080123;28;20763;-71
2022/06/11 04:46:49;;;;;;;6.80;2.73;;;;;;;18.67;65.75;101215.19;5080990;28;20234;-72
2022/06/11 04:49:19;;;;;;;6.67;2.97;;;;;;;18.70;65.52;101218.38;5041917;28;1210754;-72
2022/06/11 04:51:49;;;;;;;5.43;2.30;;;;;;;18.69;65.55;101222.06;5084230;28;20211;-72
2022/06/11 04:54:26;;;;;;;9.87;3.20;;;;;;;18.71;65.92;101224.59;5084119;28;20221;-72
2022/06/11 04:56:55;;;;;;;5.97;2.73;;;;;;;18.77;66.33;101221.16;5079960;28;20199;-72
2022/06/11 04:59:23;;;;;;;7.50;3.20;;;;;;;18.83;66.29;101212.34;5085548;28;20211;-71
2022/06/11 05:01:51;;;;;;;9.10;3.10;;;;;;;18.80;67.39;101210.03;5080365;28;20645;-70
2022/06/11 05:04:19;;;;;;;9.03;3.03;;;;;;;18.77;66.62;101210.41;5085591;28;20210;-69
2022/06/11 05:06:52;;;;;;;9.37;3.07;;;;;;;18.62;67.07;101209.56;5083925;28;20674;-70
2022/06/11 05:09:22;;;;;;;8.27;2.93;;;;;;;18.59;67.32;101218.81;5085114;28;20294;-70
2022/06/11 05:11:53;;;;;;;8.73;3.30;;;;;;;18.59;67.96;101217.97;5090606;28;20698;-70
2022/06/11 05:14:25;;;;;;;6.23;2.73;;;;;;;18.58;67.87;101230.56;5087644;28;20294;-70
2022/06/11 05:16:56;;;;;;;5.27;3.03;;;;;;;18.65;68.05;101227.97;5081822;28;20199;-71
2022/06/11 05:19:25;;;;;;;7.03;3.43;;;;;;;18.71;67.79;101221.88;5081732;28;20217;-71
2022/06/11 05:21:54;;;;;;;8.17;2.93;;;;;;;18.77;66.70;101223.84;5084747;28;20317;-72
2022/06/11 05:24:22;;;;;;;10.83;3.60;;;;;;;18.73;67.27;101230.63;5095299;28;20242;-71
2022/06/11 05:26:52;;;;;;;10.90;3.73;;;;;;;18.61;68.27;101227.53;5085083;28;20203;-71
2022/06/11 05:29:25;;;;;;;9.23;3.33;;;;;;;18.56;68.53;101227.19;5077946;28;20364;-71
2022/06/11 05:31:54;;;;;;;9.03;3.43;;;;;;;18.53;68.86;101241.00;5081470;28;20851;-70
2022/06/11 05:34:26;;;;;;;10.60;3.83;;;;;;;18.61;69.40;101237.44;5084942;28;20214;-71
2022/06/11 05:36:55;;;;;;;10.00;3.80;;;;;;;18.72;69.08;101239.69;5081582;28;20253;-72
2022/06/11 05:39:23;;;;;;;11.20;3.53;;;;;;;18.76;69.30;101240.97;5083894;28;20222;-71
2022/06/11 05:41:51;;;;;;;5.97;3.17;;;;;;;18.75;69.08;101245.50;5086857;28;20262;-71
2022/06/11 05:44:19;;;;;;;10.13;3.77;;;;;;;18.82;68.95;101251.00;5083503;28;20226;-71
2022/06/11 05:46:49;;;;;;;9.17;4.33;;;;;;;18.90;68.17;101240.19;5093617;28;20949;-72
2022/06/11 05:49:21;;;;;;;9.10;4.60;;;;;;;19.03;67.67;101244.91;5084230;28;20279;-71
2022/06/11 05:51:55;;;;;;;9.33;3.90;;;;;;;19.04;66.68;101247.41;5092831;28;20210;-71
2022/06/11 05:54:28;;;;;;;10.50;3.70;;;;;;;19.10;66.66;101254.72;5094586;28;20574;-70
2022/06/11 05:56:56;;;;;;;11.03;4.50;;;;;;;19.08;66.58;101240.66;5093228;28;20302;-71
2022/06/11 05:59:29;;;;;;;9.93;3.57;;;;;;;19.02;67.14;101238.69;5093940;28;20673;-70
2022/06/11 06:02:03;;;;;;;7.90;3.27;;;;;;;19.14;66.27;101245.28;5089377;28;20218;-70
2022/06/11 06:04:33;;;;;;;8.80;3.57;;;;;;;19.13;66.52;101237.41;5091093;28;20205;-70
2022/06/11 06:07:01;;;;;;;9.43;3.40;;;;;;;19.12;66.86;101241.09;5092586;28;20202;-70
2022/06/11 06:09:28;;;;;;;9.83;3.73;;;;;;;19.08;67.25;101240.66;5098223;28;20210;-70
2022/06/11 06:11:56;;;;;;;9.03;3.67;;;;;;;19.15;66.60;101248.81;5095844;28;20206;-70
2022/06/11 06:14:24;;;;;;;8.50;3.60;;;;;;;19.08;66.34;101255.94;5091531;28;20207;-70
2022/06/11 06:16:52;;;;;;;8.77;3.30;;;;;;;19.02;67.14;101252.13;5096897;28;20400;-71
2022/06/11 06:19:21;;;;;;;6.87;3.40;;;;;;;19.03;67.36;101251.13;5094230;28;20209;-71
2022/06/11 06:21:48;;;;;;;9.80;3.80;;;;;;;19.12;67.60;101250.00;5088410;28;20250;-71
2022/06/11 06:24:16;;;;;;;8.67;3.60;;;;;;;19.29;66.58;101256.03;5091697;28;20659;-71
2022/06/11 06:26:44;;;;;;;8.10;3.47;;;;;;;19.33;65.94;101253.81;5093250;28;20211;-71
2022/06/11 06:29:12;;;;;;;8.57;3.10;;;;;;;19.42;66.59;101258.06;5097765;28;20230;-71
2022/06/11 06:31:39;;;;;;;10.23;4.40;;;;;;;19.47;65.89;101263.72;5091160;28;20282;-71
2022/06/11 06:34:07;;;;;;;9.40;3.53;;;;;;;19.48;65.80;101257.34;5091749;28;20234;-71
2022/06/11 06:36:36;;;;;;;11.03;3.93;;;;;;;19.60;65.35;101255.84;5088079;28;20603;-71
2022/06/11 06:39:04;;;;;;;7.03;3.77;;;;;;;19.62;65.20;101256.47;5089995;28;20199;-71
2022/06/11 06:41:32;;;;;;;9.37;3.50;;;;;;;19.60;64.58;101265.78;5094203;28;20646;-71
2022/06/11 06:44:00;;;;;;;11.30;3.80;;;;;;;19.63;64.01;101260.84;5098126;28;20301;-71
2022/06/11 06:46:28;;;;;;;7.83;3.80;;;;;;;19.70;63.82;101256.38;5091935;28;20198;-71
2022/06/11 06:48:56;;;;;;;15.80;4.10;;;;;;;19.83;63.02;101266.47;5092210;28;20206;-71
2022/06/11 06:51:24;;;;;;;7.23;3.53;;;;;;;19.84;62.45;101255.53;5058328;28;20240;-71
2022/06/11 06:53:53;;;;;;;8.17;3.57;;;;;;;19.90;62.77;101262.84;5062680;28;20438;-71
2022/06/11 06:56:25;;;;;;;9.13;3.73;;;;;;;20.09;62.31;101265.94;5063627;28;20593;-71
2022/06/11 06:58:58;;;;;;;15.53;4.73;;;;;;;20.17;62.41;101269.34;5061585;28;20527;-71
2022/06/11 07:01:26;;;;;;;9.00;3.70;;;;;;;20.20;61.94;101273.53;5064311;28;20233;-71
2022/06/11 07:03:54;;;;;;;7.40;3.80;;;;;;;20.22;62.35;101271.47;5058042;28;20207;-72
2022/06/11 07:06:42;;;;;;;12.43;4.63;;;;;;;20.29;62.18;101273.19;5060681;28;20212;-70
2022/06/11 07:09:12;;;;;;;12.27;4.30;;;;;;;20.37;61.52;101269.56;5057846;28;20732;-71
2022/06/11 07:11:40;;;;;;;10.67;3.80;;;;;;;20.47;62.36;101264.69;5061940;28;20242;-71
2022/06/11 07:14:07;;;;;;;10.17;4.40;;;;;;;20.50;61.58;101266.16;5060573;28;20203;-71
2022/06/11 07:16:39;;;;;;;13.03;4.07;;;;;;;20.56;61.35;101268.94;5060088;28;20212;-72
2022/06/11 07:19:17;;;;;;;9.23;3.83;;;;;;;20.60;61.22;101263.97;5060725;28;20242;-72
2022/06/11 07:21:51;;;;;;;9.83;3.93;;;;;;;20.65;61.52;101270.47;5060827;28;20250;-71
2022/06/11 07:24:25;;;;;;;7.73;4.03;;;;;;;20.74;61.65;101270.31;5060854;28;20859;-71
2022/06/11 07:26:59;;;;;;;7.50;4.20;;;;;;;20.79;62.09;101267.84;5061728;28;20203;-71
2022/06/11 07:29:34;;;;;;;9.73;5.37;;;;;;;20.90;61.41;101259.25;5063277;28;20239;-71
2022/06/11 07:32:15;;;;;;;12.10;4.40;;;;;;;20.90;60.93;101264.63;5059544;28;20212;-71
2022/06/11 07:34:44;;;;;;;11.10;5.07;;;;;;;21.09;60.60;101266.63;5062191;28;20195;-71
2022/06/11 07:37:13;;;;;;;11.20;4.67;;;;;;;21.00;60.75;101270.50;5060175;28;20208;-71
2022/06/11 07:39:43;;;;;;;13.27;5.57;;;;;;;21.06;61.23;101264.31;5063489;28;20303;-71
2022/06/11 07:42:11;;;;;;;12.33;5.10;;;;;;;21.02;61.25;101263.88;5064554;28;20570;-70
2022/06/11 07:44:39;;;;;;;11.53;5.10;;;;;;;21.16;61.88;101259.41;5067249;28;20579;-72
2022/06/11 07:47:07;;;;;;;15.83;4.90;;;;;;;21.18;61.62;101257.38;5063437;28;20645;-71
2022/06/11 07:49:35;;;;;;;11.00;5.40;;;;;;;21.36;61.47;101255.00;5070430;28;20857;-71
2022/06/11 07:52:05;;;;;;;13.70;5.93;;;;;;;21.38;61.56;101252.91;5080269;28;20213;-71
2022/06/11 07:54:33;;;;;;;12.80;5.30;;;;;;;21.50;60.94;101253.19;5082342;28;20281;-72
2022/06/11 07:57:02;;;;;;;10.27;5.07;;;;;;;21.55;61.25;101255.31;5086177;28;20234;-72
2022/06/11 07:59:36;;;;;;;11.30;5.70;;;;;;;21.66;60.37;101260.09;5085016;28;20651;-71
2022/06/11 08:02:04;;;;;;;12.93;4.97;;;;;;;21.74;60.33;101257.22;5082457;28;20226;-70
2022/06/11 08:04:32;;;;;;;16.10;6.20;;;;;;;21.81;61.03;101262.66;5083258;28;20764;-71
2022/06/11 08:07:00;;;;;;;12.37;5.50;;;;;;;21.89;60.46;101254.38;5085053;28;20711;-71
2022/06/11 08:09:27;;;;;;;10.17;5.40;;;;;;;21.96;59.90;101258.75;5086201;28;20210;-71
2022/06/11 08:11:56;;;;;;;10.40;4.83;;;;;;;22.04;59.44;101264.00;5084198;28;20305;-71
2022/06/11 08:14:25;;;;;;;16.23;4.93;;;;;;;22.17;59.43;101262.34;5083476;28;20668;-72
2022/06/11 08:16:52;;;;;;;12.57;6.17;;;;;;;22.28;57.54;101259.88;5084213;28;20293;-72
2022/06/11 08:19:21;;;;;;;12.25;6.40;;;;;;;22.48;57.58;101258.06;5084359;28;20298;-72
2022/06/11 08:21:49;;;;;;;17.55;7.43;;;;;;;22.56;57.29;101256.19;5086493;28;20451;-72
2022/06/11 08:24:17;;;;;;;10.60;6.28;;;;;;;22.54;57.11;101253.66;5086696;28;20551;-72
2022/06/11 08:26:45;;;;;;;12.48;6.28;;;;;;;22.55;57.09;101255.34;5086841;28;20681;-73
2022/06/11 08:29:13;;;;;;;12.32;6.50;;;;;;;22.76;55.91;101257.88;5084992;28;20238;-71
2022/06/11 08:31:42;;;;;;;13.98;5.38;;;;;;;22.83;55.16;101253.28;5084474;28;20207;-73
2022/06/11 08:34:10;;;;;;;10.90;5.55;;;;;;;22.87;55.63;101259.94;5082277;28;20233;-71
2022/06/11 08:36:38;;;;;;;16.20;6.05;;;;;;;23.02;53.47;101258.88;5088876;28;20211;-72
2022/06/11 08:39:06;;;;;;;10.73;5.30;;;;;;;23.00;53.78;101252.84;5083882;28;20211;-71
2022/06/11 08:41:36;;;;;;;16.77;6.00;;;;;;;23.06;54.30;101252.00;5082679;28;20209;-72
2022/06/11 08:44:08;;;;;;;13.65;5.80;;;;;;;23.18;54.41;101250.31;5084283;28;20211;-72
2022/06/11 08:46:41;;;;;;;13.57;5.00;;;;;;;23.34;53.30;101249.84;5082218;28;20652;-71
2022/06/11 08:49:15;;;;;;;10.45;5.57;;;;;;;23.29;53.64;101246.13;5081806;28;20256;-71
2022/06/11 08:51:49;;;;;;;11.88;4.65;;;;;;;23.60;52.22;101252.50;5064820;28;20229;-72
2022/06/11 08:54:20;;;;;;;9.20;4.05;;;;;;;23.55;50.66;101244.19;5061096;28;20809;-71
2022/06/11 08:56:58;;;;;;;9.63;4.55;;;;;;;23.58;51.98;101242.91;5064698;28;20295;-71
2022/06/11 08:59:46;;;;;;;8.95;4.75;;;;;;;23.65;52.97;101245.63;5063782;28;20238;-71
2022/06/11 09:02:39;;;;;;;12.82;4.97;;;;;;;23.81;52.93;101239.69;5064025;28;20306;-70
2022/06/11 09:05:21;;;;;;;9.70;4.43;;;;;;;23.86;52.61;101232.56;5060114;28;20740;-71
2022/06/11 09:08:06;;;;;;;10.73;4.18;;;;;;;23.96;51.80;101232.94;5067281;28;20675;-71
2022/06/11 09:10:50;;;;;;;10.68;3.83;;;;;;;24.11;51.55;101226.38;5062464;28;20238;-71
2022/06/11 09:13:43;;;;;;;10.15;3.47;;;;;;;24.20;52.39;101228.59;5064327;28;20742;-71
2022/06/11 09:16:26;;;;;;;7.82;3.17;;;;;;;24.35;51.59;101223.75;5065057;28;20217;-72
2022/06/11 09:19:14;;;;;;;8.75;3.28;;;;;;;24.44;50.67;101224.31;5062171;28;20563;-72
2022/06/11 09:21:56;;;;;;;8.20;3.00;;;;;;;24.47;50.71;101220.28;5063888;28;20259;-72
2022/06/11 09:24:41;;;;;;;6.10;2.20;;;;;;;24.59;50.77;101216.66;5059766;28;20228;-71
2022/06/11 09:27:19;;;;;;;5.38;1.90;;;;;;;24.84;47.96;101215.78;5064927;28;20211;-72
2022/06/11 09:29:55;;;;;;;8.90;2.28;;;;;;;24.90;48.43;101209.47;5064629;28;20703;-71
2022/06/11 09:32:28;;;;;;;7.32;2.22;;;;;;;24.96;48.17;101208.63;5061197;28;20294;-71
2022/06/11 09:35:05;;;;;;;7.22;1.90;;;;;;;25.03;47.99;101212.91;5065467;28;20719;-71
2022/06/11 09:37:42;;;;;;;5.28;1.77;;;;;;;25.14;46.31;101214.06;5063577;28;20678;-72
2022/06/11 09:40:24;;;;;;;5.18;1.77;;;;;;;25.23;44.72;101218.13;5066106;28;20250;-72
2022/06/11 09:43:04;;;;;;;7.70;1.90;;;;;;;25.39;45.96;101222.09;5066224;28;20306;-71
2022/06/11 09:45:37;;;;;;;5.40;1.88;;;;;;;25.57;43.63;101223.97;5066550;28;20679;-72
2022/06/11 09:48:24;;;;;;;5.93;1.80;;;;;;;25.57;43.87;101218.53;5064643;28;20671;-72
2022/06/11 09:50:57;;;;;;;8.50;1.50;;;;;;;25.65;44.23;101224.53;5084308;28;20846;-72
2022/06/11 09:53:48;;;;;;;6.28;1.83;;;;;;;25.82;42.92;101214.66;5093663;28;20473;-72
2022/06/11 09:56:26;;;;;;;7.15;1.77;;;;;;;25.97;43.23;101211.53;5087105;28;20237;-72
2022/06/11 09:59:03;;;;;;;4.03;1.35;;;;;;;25.93;42.46;101202.19;5090749;28;20612;-73
2022/06/11 10:01:45;;;;;;;10.63;1.60;;;;;;;26.06;42.58;101195.72;5089918;28;20572;-72
2022/06/11 10:04:20;;;;;;;4.47;1.60;;;;;;;26.31;41.69;101207.25;5088330;28;20254;-73
2022/06/11 10:06:53;;;;;;;5.50;1.55;;;;;;;26.33;40.67;101207.03;5087523;28;20206;-72
2022/06/11 10:09:26;;;;;;;5.68;1.50;;;;;;;26.49;39.85;101206.34;5074891;28;20566;-72
2022/06/11 10:11:59;;;;;;;7.55;1.50;;;;;;;26.70;40.12;101203.03;5085249;28;20211;-72
2022/06/11 10:14:37;;;;;;;4.63;1.40;;;;;;;26.62;41.62;101210.72;5082904;28;20234;-72
2022/06/11 10:17:19;;;;;;;6.70;2.13;;;;;;;26.50;44.42;101208.81;5084419;28;20306;-74
2022/06/11 10:19:55;;;;;;;7.68;1.67;;;;;;;26.45;41.91;101211.44;5083641;28;20254;-67
2022/06/11 10:22:31;;;;;;;5.40;1.50;;;;;;;26.36;41.90;101204.69;5084387;28;20260;-73
2022/06/11 10:25:15;;;;;;;7.95;1.52;;;;;;;26.32;40.54;101213.53;5083345;28;20249;-74
2022/06/11 10:27:48;;;;;;;4.10;1.35;;;;;;;26.07;40.60;101208.25;5088193;28;20321;-71
2022/06/11 10:30:35;;;;;;;4.00;1.20;;;;;;;25.80;41.68;101208.63;5092472;28;20240;-71
2022/06/11 10:33:09;;;;;;;6.00;1.60;;;;;;;25.84;40.63;101207.13;5094017;28;20943;-72
2022/06/11 10:35:44;;;;;;;3.92;1.30;;;;;;;25.86;41.03;101204.97;5092640;28;20693;-72
2022/06/11 10:38:34;;;;;;;2.97;1.33;;;;;;;25.91;42.87;101201.59;5090146;28;20276;-72
2022/06/11 10:41:08;;;;;;;5.95;1.83;;;;;;;26.02;43.30;101199.97;5090126;28;20308;-72
2022/06/11 10:43:42;;;;;;;4.63;1.20;;;;;;;26.21;42.19;101198.84;5087632;28;20230;-72
2022/06/11 10:46:11;;;;;;;4.47;1.63;;;;;;;26.27;41.31;101203.38;5092040;28;20774;-72
2022/06/11 10:48:40;;;;;;;5.20;1.40;;;;;;;26.18;40.77;101200.13;5089263;28;20206;-72
2022/06/11 10:51:15;;;;;;;4.63;1.45;;;;;;;25.97;41.32;101200.66;5090974;28;20672;-72
2022/06/11 10:53:56;;;;;;;4.05;1.20;;;;;;;25.80;41.70;101192.34;5088269;28;20280;-72
2022/06/11 10:56:35;;;;;;;5.15;1.90;;;;;;;26.06;41.94;101201.16;5084589;28;20222;-73
2022/06/11 10:59:07;;;;;;;6.15;1.80;;;;;;;26.16;41.47;101195.97;5082108;28;20213;-72
2022/06/11 11:01:46;;;;;;;6.35;1.67;;;;;;;26.26;42.14;101198.13;5078378;28;20560;-73
2022/06/11 11:04:30;;;;;;;3.90;1.58;;;;;;;26.49;41.92;101188.13;5084451;28;20226;-73
2022/06/11 11:07:09;;;;;;;3.83;1.55;;;;;;;26.63;41.44;101180.56;5080712;28;20299;-74
2022/06/11 11:09:37;;;;;;;7.60;2.40;;;;;;;26.71;41.77;101182.94;5083661;28;20237;-73
2022/06/11 11:12:17;;;;;;;14.32;1.55;;;;;;;26.85;41.26;101173.44;5081926;28;20236;-74
2022/06/11 11:14:47;;;;;;;6.10;1.60;;;;;;;26.97;40.67;101181.63;5085467;28;20199;-74
2022/06/11 11:17:19;;;;;;;13.90;2.92;;;;;;;27.10;41.52;101175.91;5087844;28;20665;-71
2022/06/11 11:23:38;;;;;;;6.47;1.88;;;;;;;27.26;40.65;101169.75;5085864;28;20201;-74
2022/06/11 11:26:13;;;;;;;7.80;1.80;;;;;;;27.34;40.69;101169.38;5087598;28;20206;-72
2022/06/11 11:28:52;;;;;;;4.72;1.73;;;;;;;27.65;39.45;101168.06;5085122;28;20213;-72
2022/06/11 11:31:23;;;;;;;3.00;1.40;;;;;;;27.80;39.28;101172.97;5085638;28;20211;-71
2022/06/11 11:34:01;;;;;;;6.28;2.17;;;;;;;27.98;38.66;101169.19;5087045;28;20638;-71
2022/06/11 11:36:31;;;;;;;5.10;2.13;;;;;;;27.84;39.35;101163.25;5087679;28;20266;-76
2022/06/11 11:39:22;;;;;;;5.78;2.05;;;;;;;28.03;38.31;101170.13;5083155;28;20207;-76
2022/06/11 11:42:00;;;;;;;4.78;1.65;;;;;;;27.99;38.29;101171.69;5079304;28;20620;-70
2022/06/11 11:44:35;;;;;;;5.47;1.73;;;;;;;28.22;37.72;101167.19;5086874;28;20622;-75
2022/06/11 11:47:13;;;;;;;5.03;1.75;;;;;;;28.23;37.77;101157.94;5088021;28;20312;-73
2022/06/11 11:49:41;;;;;;;3.63;1.73;;;;;;;27.99;38.46;101162.69;5085624;28;20718;-73
2022/06/11 11:52:15;;;;;;;2.63;1.50;;;;;;;27.81;38.99;101163.72;5087500;28;20253;-74
2022/06/11 11:54:55;;;;;;;3.47;1.60;;;;;;;27.91;39.45;101157.63;5086543;28;20195;-75